createdAt,value
2022-12-19T00:01:35.558Z,72.18
2022-12-19T00:04:08.166Z,72.07
2022-12-19T00:06:43.447Z,72.13
2022-12-19T00:09:14.276Z,72.02
2022-12-19T00:11:43.194Z,72.05
2022-12-19T00:14:12.861Z,72.16
2022-12-19T00:16:42.148Z,72.18
2022-12-19T00:19:12.044Z,72.17
2022-12-19T00:21:40.792Z,72.21
2022-12-19T00:24:20.723Z,72.39
2022-12-19T00:26:51.835Z,72.17
2022-12-19T00:29:20.868Z,72.21
2022-12-19T00:31:49.488Z,72.33
2022-12-19T00:34:18.753Z,72.31
2022-12-19T00:36:47.134Z,72.67
2022-12-19T00:39:16.382Z,72.47
2022-12-19T00:41:47.917Z,72.49
2022-12-19T00:44:18.590Z,72.50
2022-12-19T00:46:53.027Z,72.35
2022-12-19T00:49:21.759Z,72.23
2022-12-19T00:51:50.905Z,72.27
2022-12-19T00:54:19.526Z,72.11
2022-12-19T00:56:48.380Z,72.16
2022-12-19T00:59:18.926Z,72.03
2022-12-19T01:01:58.312Z,72.06
2022-12-19T01:04:28.893Z,71.99
2022-12-19T01:07:01.735Z,71.96
2022-12-19T01:09:36.356Z,71.89
2022-12-19T01:12:25.142Z,71.87
2022-12-19T01:15:03.948Z,71.64
2022-12-19T01:17:43.815Z,71.79
2022-12-19T01:20:16.506Z,71.62
2022-12-19T01:22:46.687Z,71.73
2022-12-19T01:25:16.406Z,71.89
2022-12-19T01:27:44.869Z,71.68
2022-12-19T01:30:15.690Z,71.77
2022-12-19T01:32:45.312Z,71.68
2022-12-19T01:35:21.735Z,71.76
2022-12-19T01:37:52.392Z,71.76
2022-12-19T01:40:27.847Z,71.89
2022-12-19T01:42:56.780Z,71.71
2022-12-19T01:45:33.940Z,71.61
2022-12-19T01:48:18.384Z,71.59
2022-12-19T01:51:00.844Z,71.64
2022-12-19T01:53:38.585Z,71.66
2022-12-19T01:56:19.703Z,71.53
2022-12-19T01:59:00.615Z,71.42
2022-12-19T02:01:47.690Z,71.49
2022-12-19T02:04:25.280Z,71.40
2022-12-19T02:06:56.918Z,71.34
2022-12-19T02:09:26.529Z,71.42
2022-12-19T02:11:55.336Z,71.23
2022-12-19T02:14:26.037Z,71.32
2022-12-19T02:17:04.107Z,71.32
2022-12-19T02:20:06.907Z,71.29
2022-12-19T02:22:52.740Z,71.23
2022-12-19T02:25:45.855Z,71.01
2022-12-19T02:28:34.143Z,71.18
2022-12-19T02:31:16.612Z,71.36
2022-12-19T02:33:57.355Z,71.04
2022-12-19T02:36:38.160Z,71.20
2022-12-19T02:39:12.966Z,71.15
2022-12-19T02:41:48.987Z,71.08
2022-12-19T02:44:25.762Z,71.21
2022-12-19T02:46:59.237Z,71.01
2022-12-19T02:49:31.293Z,71.06
2022-12-19T02:52:10.354Z,70.97
2022-12-19T02:54:44.883Z,71.00
2022-12-19T02:57:21.289Z,71.07
2022-12-19T03:00:03.170Z,70.91
2022-12-19T03:02:45.400Z,70.92
2022-12-19T03:05:34.149Z,70.74
2022-12-19T03:08:08.297Z,70.63
2022-12-19T03:10:43.931Z,70.65
2022-12-19T03:13:17.944Z,70.90
2022-12-19T03:15:47.312Z,70.70
2022-12-19T03:18:18.788Z,70.50
2022-12-19T03:20:49.600Z,70.62
2022-12-19T03:23:19.300Z,70.60
2022-12-19T03:25:52.049Z,70.59
2022-12-19T03:28:26.343Z,70.58
2022-12-19T03:30:56.746Z,70.54
2022-12-19T03:33:30.629Z,70.38
2022-12-19T03:36:06.163Z,70.55
2022-12-19T03:38:36.719Z,70.50
2022-12-19T03:41:08.273Z,70.32
2022-12-19T03:43:37.637Z,70.51
2022-12-19T03:46:14.383Z,70.38
2022-12-19T03:48:46.138Z,70.45
2022-12-19T03:51:24.887Z,70.33
2022-12-19T03:54:01.810Z,70.24
2022-12-19T03:56:36.808Z,70.37
2022-12-19T03:59:11.326Z,70.37
2022-12-19T04:01:42.147Z,70.22
2022-12-19T04:04:14.119Z,70.28
2022-12-19T04:06:45.989Z,70.43
2022-12-19T04:09:20.690Z,70.33
2022-12-19T04:11:54.722Z,70.52
2022-12-19T04:14:29.760Z,70.59
2022-12-19T04:17:07.378Z,70.73
2022-12-19T04:19:44.233Z,70.80
2022-12-19T04:22:17.640Z,70.40
2022-12-19T04:24:49.824Z,70.65
2022-12-19T04:27:19.923Z,70.78
2022-12-19T04:29:53.501Z,70.66
2022-12-19T04:32:23.120Z,70.86
2022-12-19T04:34:53.308Z,70.90
2022-12-19T04:37:21.817Z,70.88
2022-12-19T04:39:50.927Z,70.84
2022-12-19T04:42:19.953Z,70.95
2022-12-19T04:44:48.876Z,71.14
2022-12-19T04:47:17.681Z,71.15
2022-12-19T04:49:46.085Z,71.22
2022-12-19T04:52:16.785Z,71.34
2022-12-19T04:54:45.217Z,71.33
2022-12-19T04:57:14.153Z,71.29
2022-12-19T04:59:42.894Z,71.48
2022-12-19T05:02:11.447Z,71.51
2022-12-19T05:04:40.965Z,71.65
2022-12-19T05:07:09.673Z,71.66
2022-12-19T05:09:39.947Z,71.58
2022-12-19T05:12:10.753Z,71.55
2022-12-19T05:14:39.159Z,71.71
2022-12-19T05:17:08.248Z,71.64
2022-12-19T05:19:36.914Z,71.88
2022-12-19T05:22:05.334Z,71.85
2022-12-19T05:24:34.801Z,72.14
2022-12-19T05:27:05.232Z,72.09
2022-12-19T05:29:34.925Z,72.22
2022-12-19T05:32:03.358Z,72.15
2022-12-19T05:34:32.743Z,72.32
2022-12-19T05:37:03.079Z,72.58
2022-12-19T05:39:32.455Z,72.74
2022-12-19T05:42:01.392Z,72.84
2022-12-19T05:44:31.163Z,72.94
2022-12-19T05:47:00.391Z,72.88
2022-12-19T05:49:29.286Z,72.97
2022-12-19T05:51:57.639Z,73.04
2022-12-19T05:54:27.975Z,73.00
2022-12-19T05:56:56.425Z,73.08
2022-12-19T05:59:25.480Z,73.20
2022-12-19T06:01:56.008Z,73.22
2022-12-19T06:04:25.029Z,73.14
2022-12-19T06:06:53.880Z,73.13
2022-12-19T06:09:22.436Z,73.05
2022-12-19T06:11:53.152Z,73.07
2022-12-19T06:14:21.687Z,73.04
2022-12-19T06:16:50.123Z,72.97
2022-12-19T06:19:20.444Z,73.23
2022-12-19T06:21:49.669Z,73.27
2022-12-19T06:24:19.079Z,73.42
2022-12-19T06:26:47.525Z,73.38
2022-12-19T06:29:16.576Z,73.28
2022-12-19T06:31:45.801Z,73.24
2022-12-19T06:34:32.861Z,73.23
2022-12-19T06:37:08.110Z,73.28
2022-12-19T06:39:36.980Z,73.42
2022-12-19T06:42:24.354Z,73.44
2022-12-19T06:44:56.014Z,73.34
2022-12-19T06:47:26.142Z,73.53
2022-12-19T06:49:54.741Z,73.58
2022-12-19T06:52:26.221Z,73.44
2022-12-19T06:54:55.269Z,73.42
2022-12-19T06:57:24.171Z,73.44
2022-12-19T06:59:52.837Z,73.51
2022-12-19T07:02:27.342Z,73.40
2022-12-19T07:05:01.655Z,73.47
2022-12-19T07:07:31.771Z,73.32
2022-12-19T07:10:00.873Z,73.49
2022-12-19T07:12:29.340Z,73.37
2022-12-19T07:14:58.179Z,73.48
2022-12-19T07:17:27.557Z,73.54
2022-12-19T07:19:58.698Z,73.64
2022-12-19T07:22:34.583Z,73.59
2022-12-19T07:25:04.598Z,73.67
2022-12-19T07:27:36.172Z,73.60
2022-12-19T07:30:07.864Z,73.43
2022-12-19T07:32:37.450Z,73.56
2022-12-19T07:35:06.847Z,73.49
2022-12-19T07:37:36.644Z,73.56
2022-12-19T07:40:06.522Z,73.51
2022-12-19T07:42:35.215Z,73.33
2022-12-19T07:45:04.305Z,73.35
2022-12-19T07:47:32.804Z,73.22
2022-12-19T07:50:01.965Z,73.12
2022-12-19T07:52:30.845Z,73.22
2022-12-19T07:55:00.668Z,73.07
2022-12-19T07:57:29.165Z,72.99
2022-12-19T07:59:58.038Z,73.06
2022-12-19T08:02:27.845Z,73.12
2022-12-19T08:04:56.412Z,72.95
2022-12-19T08:07:25.343Z,72.95
2022-12-19T08:09:54.184Z,73.00
2022-12-19T08:12:24.275Z,73.01
2022-12-19T08:14:57.100Z,72.84
2022-12-19T08:17:26.680Z,72.81
2022-12-19T08:19:55.137Z,72.74
2022-12-19T08:22:24.855Z,72.71
2022-12-19T08:24:53.832Z,72.64
2022-12-19T08:27:22.269Z,72.89
2022-12-19T08:29:53.405Z,72.86
2022-12-19T08:32:22.310Z,72.86
2022-12-19T08:34:51.663Z,72.73
2022-12-19T08:37:20.979Z,72.86
2022-12-19T08:39:49.402Z,72.77
2022-12-19T08:42:18.734Z,72.70
2022-12-19T08:44:47.238Z,72.64
2022-12-19T08:47:17.636Z,72.77
2022-12-19T08:49:46.998Z,72.61
2022-12-19T08:52:15.427Z,72.46
2022-12-19T08:54:45.804Z,72.69
2022-12-19T08:57:14.266Z,72.54
2022-12-19T08:59:42.949Z,72.58
2022-12-19T09:02:12.424Z,72.55
2022-12-19T09:06:00.737Z,72.43
2022-12-19T09:07:32.271Z,72.19
2022-12-19T09:10:08.867Z,72.49
2022-12-19T09:12:37.933Z,72.44
2022-12-19T09:15:07.181Z,72.52
2022-12-19T09:17:36.646Z,72.66
2022-12-19T09:20:08.157Z,72.50
2022-12-19T09:22:36.664Z,72.36
2022-12-19T09:25:06.271Z,72.33
2022-12-19T09:28:09.339Z,72.25
2022-12-19T09:30:25.269Z,72.21
2022-12-19T09:32:54.053Z,72.21
2022-12-19T09:35:29.909Z,72.37
2022-12-19T09:38:00.495Z,72.21
2022-12-19T09:40:36.677Z,72.21
2022-12-19T09:43:09.856Z,72.22
2022-12-19T09:45:50.713Z,72.17
2022-12-19T09:48:24.542Z,72.08
2022-12-19T09:51:07.951Z,72.13
2022-12-19T09:53:53.817Z,72.03
2022-12-19T09:56:27.560Z,71.88
2022-12-19T09:59:02.081Z,71.90
2022-12-19T10:01:36.831Z,71.66
2022-12-19T10:04:12.107Z,71.74
2022-12-19T10:07:22.226Z,71.52
2022-12-19T10:11:26.463Z,71.50
2022-12-19T10:12:52.362Z,71.49
2022-12-19T10:15:30.403Z,71.30
2022-12-19T10:18:15.953Z,71.37
2022-12-19T10:20:51.641Z,71.02
2022-12-19T10:23:46.847Z,71.17
2022-12-19T10:26:20.591Z,71.04
2022-12-19T10:29:13.577Z,71.09
2022-12-19T10:31:53.697Z,71.13
2022-12-19T10:34:25.102Z,71.21
2022-12-19T10:37:24.501Z,71.14
2022-12-19T10:40:27.550Z,70.94
2022-12-19T10:43:11.000Z,70.89
2022-12-19T10:45:47.062Z,71.14
2022-12-19T10:48:18.693Z,70.80
2022-12-19T10:50:50.465Z,70.76
2022-12-19T10:53:28.118Z,70.59
2022-12-19T10:56:02.641Z,70.45
2022-12-19T10:58:34.927Z,70.51
2022-12-19T11:01:07.547Z,70.45
2022-12-19T11:03:36.850Z,70.24
2022-12-19T11:06:07.777Z,70.31
2022-12-19T11:08:37.474Z,70.29
2022-12-19T11:14:50.076Z,70.45
2022-12-19T11:19:06.831Z,70.33
2022-12-19T11:23:42.513Z,70.33
2022-12-19T11:29:30.141Z,70.19
2022-12-19T11:29:31.325Z,70.60
2022-12-19T11:30:26.151Z,70.21
2022-12-19T11:30:47.446Z,70.29
2022-12-19T11:32:40.542Z,70.33
2022-12-19T11:34:51.452Z,70.08
2022-12-19T11:37:23.225Z,70.00
2022-12-19T11:39:59.226Z,69.96
2022-12-19T11:42:33.763Z,69.80
2022-12-19T11:45:13.089Z,69.78
2022-12-19T11:47:46.791Z,69.64
2022-12-19T11:50:19.835Z,69.43
2022-12-19T11:53:09.405Z,69.56
2022-12-19T11:55:46.965Z,69.19
2022-12-19T11:58:16.225Z,69.08
2022-12-19T12:01:03.109Z,69.02
2022-12-19T12:03:54.734Z,68.88
2022-12-19T12:06:35.045Z,68.79
2022-12-19T12:12:06.179Z,68.77
2022-12-19T12:20:31.262Z,68.43
2022-12-19T12:28:01.732Z,68.25
2022-12-19T12:31:04.529Z,68.47
2022-12-19T12:31:28.474Z,68.36
2022-12-19T12:31:49.683Z,68.36
2022-12-19T12:31:52.578Z,68.27
2022-12-19T12:31:57.409Z,68.12
2022-12-19T12:35:32.947Z,68.21
2022-12-19T12:37:51.458Z,68.03
2022-12-19T12:39:25.363Z,68.26
2022-12-19T12:42:09.498Z,68.24
2022-12-19T12:44:45.194Z,68.22
2022-12-19T12:47:20.446Z,68.42
2022-12-19T12:49:53.773Z,68.44
2022-12-19T12:52:30.941Z,68.61
2022-12-19T12:54:59.958Z,68.49
2022-12-19T12:57:36.921Z,68.52
2022-12-19T13:00:17.896Z,68.60
2022-12-19T13:02:51.458Z,68.53
2022-12-19T13:05:31.147Z,68.47
2022-12-19T13:08:01.031Z,68.58
2022-12-19T13:10:32.348Z,68.58
2022-12-19T13:13:03.206Z,68.48
2022-12-19T13:15:49.681Z,68.39
2022-12-19T13:18:37.788Z,68.37
2022-12-19T13:21:10.894Z,68.22
2022-12-19T13:23:49.374Z,68.45
2022-12-19T13:26:23.903Z,68.41
2022-12-19T13:28:52.901Z,68.32
2022-12-19T13:31:23.601Z,68.17
2022-12-19T13:34:19.330Z,68.32
2022-12-19T13:39:50.241Z,68.37
2022-12-19T13:40:10.955Z,68.41
2022-12-19T13:43:11.455Z,68.40
2022-12-19T13:45:42.621Z,68.57
2022-12-19T13:48:17.799Z,68.54
2022-12-19T13:50:49.468Z,68.64
2022-12-19T13:53:19.746Z,68.50
2022-12-19T13:55:50.169Z,68.71
2022-12-19T13:58:28.848Z,68.79
2022-12-19T14:01:02.409Z,68.89
2022-12-19T14:03:37.235Z,69.00
2022-12-19T14:06:16.348Z,68.83
2022-12-19T14:09:41.572Z,68.89
2022-12-19T14:12:17.234Z,68.96
2022-12-19T14:14:49.060Z,69.02
2022-12-19T14:17:38.057Z,69.18
2022-12-19T14:22:06.789Z,69.00
2022-12-19T14:23:08.086Z,69.18
2022-12-19T14:28:21.795Z,69.13
2022-12-19T14:28:38.213Z,69.50
2022-12-19T14:31:12.508Z,69.54
2022-12-19T14:34:04.743Z,69.55
2022-12-19T14:36:36.019Z,69.55
2022-12-19T14:39:22.891Z,69.55
2022-12-19T14:42:18.946Z,69.57
2022-12-19T14:54:01.973Z,69.54
2022-12-19T14:54:07.888Z,69.47
2022-12-19T14:54:16.485Z,69.78
2022-12-19T14:54:55.168Z,69.68
2022-12-19T14:59:05.276Z,69.59
2022-12-19T15:01:36.751Z,69.77
2022-12-19T15:04:51.448Z,69.66
2022-12-19T15:07:08.177Z,69.76
2022-12-19T15:11:04.632Z,69.70
2022-12-19T15:14:52.914Z,69.83
2022-12-19T15:16:00.522Z,69.95
2022-12-19T15:18:40.986Z,69.91
2022-12-19T15:21:12.553Z,70.04
2022-12-19T15:23:42.271Z,70.10
2022-12-19T15:26:15.131Z,70.13
2022-12-19T15:28:47.836Z,70.07
2022-12-19T15:31:29.711Z,70.16
2022-12-19T15:34:34.268Z,70.10
2022-12-19T15:36:48.699Z,70.28
2022-12-19T15:39:17.793Z,70.13
2022-12-19T15:41:48.500Z,70.20
2022-12-19T15:44:20.072Z,70.31
2022-12-19T15:46:49.863Z,70.17
2022-12-19T15:49:22.072Z,70.22
2022-12-19T15:51:51.580Z,70.32
2022-12-19T15:57:20.936Z,70.22
2022-12-19T15:59:49.630Z,70.38
2022-12-19T16:02:21.725Z,70.16
2022-12-19T16:04:58.325Z,70.21
2022-12-19T16:07:30.799Z,70.24
2022-12-19T16:09:59.764Z,70.38
2022-12-19T16:12:33.954Z,70.33
2022-12-19T16:15:04.860Z,70.28
2022-12-19T16:17:34.278Z,70.49
2022-12-19T16:20:05.475Z,70.74
2022-12-19T16:22:34.344Z,70.52
2022-12-19T16:25:03.773Z,70.72
2022-12-19T16:27:32.788Z,70.72
2022-12-19T16:30:18.805Z,70.70
2022-12-19T16:32:48.135Z,70.79
2022-12-19T16:35:40.268Z,70.84
2022-12-19T16:38:10.040Z,70.83
2022-12-19T16:40:39.196Z,71.00
2022-12-19T16:43:15.423Z,70.97
2022-12-19T16:45:45.436Z,71.08
2022-12-19T16:48:22.580Z,71.10
2022-12-19T16:50:52.492Z,71.24
2022-12-19T16:53:21.887Z,71.13
2022-12-19T16:55:51.449Z,71.22
2022-12-19T16:58:22.501Z,71.37
2022-12-19T17:00:53.628Z,71.16
2022-12-19T17:03:30.239Z,71.40
2022-12-19T17:06:00.111Z,71.27
2022-12-19T17:08:29.203Z,71.39
2022-12-19T17:10:57.800Z,71.54
2022-12-19T17:13:26.716Z,71.53
2022-12-19T17:15:57.359Z,71.61
2022-12-19T17:18:30.318Z,71.52
2022-12-19T17:21:01.667Z,71.47
2022-12-19T17:23:32.476Z,71.67
2022-12-19T17:26:02.214Z,71.54
2022-12-19T17:28:30.927Z,71.59
2022-12-19T17:31:04.254Z,71.69
2022-12-19T17:33:35.597Z,71.75
2022-12-19T17:36:07.752Z,71.62
2022-12-19T17:38:36.487Z,71.59
2022-12-19T17:41:05.340Z,71.50
2022-12-19T17:43:34.261Z,71.74
2022-12-19T17:46:03.520Z,71.77
2022-12-19T17:48:33.773Z,71.74
2022-12-19T17:51:02.856Z,71.88
2022-12-19T17:53:33.248Z,72.01
2022-12-19T17:56:02.142Z,71.80
2022-12-19T17:58:30.828Z,72.02
2022-12-19T18:01:01.343Z,72.09
2022-12-19T18:03:29.958Z,72.07
2022-12-19T18:05:59.497Z,72.11
2022-12-19T18:08:31.742Z,72.22
2022-12-19T18:11:03.062Z,72.24
2022-12-19T18:13:33.005Z,72.11
2022-12-19T18:16:03.223Z,72.28
2022-12-19T18:18:36.168Z,72.37
2022-12-19T18:21:06.400Z,72.44
2022-12-19T18:23:35.358Z,72.45
2022-12-19T18:26:05.207Z,72.51
2022-12-19T18:28:34.122Z,72.58
2022-12-19T18:31:04.915Z,72.60
2022-12-19T18:33:38.949Z,72.87
2022-12-19T18:36:08.893Z,72.85
2022-12-19T18:38:37.389Z,72.80
2022-12-19T18:41:10.849Z,72.98
2022-12-19T18:43:40.484Z,72.92
2022-12-19T18:46:14.266Z,72.94
2022-12-19T18:48:44.354Z,72.86
2022-12-19T18:51:16.946Z,73.04
2022-12-19T18:53:47.695Z,72.74
2022-12-19T18:56:19.381Z,73.25
2022-12-19T18:58:48.482Z,73.00
2022-12-19T19:01:20.476Z,72.98
2022-12-19T19:03:54.284Z,72.83
2022-12-19T19:06:25.839Z,72.86
2022-12-19T19:08:56.865Z,72.65
2022-12-19T19:11:53.848Z,72.64
2022-12-19T19:14:22.366Z,72.39
2022-12-19T19:16:52.331Z,72.26
2022-12-19T19:19:21.271Z,72.02
2022-12-19T19:21:50.138Z,72.10
2022-12-19T19:24:21.768Z,72.03
2022-12-19T19:26:50.671Z,71.92
2022-12-19T19:29:20.534Z,72.02
2022-12-19T19:31:51.551Z,71.97
2022-12-19T19:34:24.403Z,71.81
2022-12-19T19:36:56.354Z,71.84
2022-12-19T19:39:25.344Z,71.71
2022-12-19T19:41:53.810Z,71.48
2022-12-19T19:44:23.869Z,71.35
2022-12-19T19:46:52.381Z,71.40
2022-12-19T19:49:21.959Z,71.36
2022-12-19T19:51:50.405Z,71.25
2022-12-19T19:54:19.761Z,71.23
2022-12-19T19:56:48.892Z,71.40
2022-12-19T19:59:17.404Z,71.09
2022-12-19T20:01:47.368Z,70.97
2022-12-19T20:04:16.283Z,70.89
2022-12-19T20:06:44.760Z,70.87
2022-12-19T20:09:13.196Z,70.85
2022-12-19T20:11:41.616Z,70.66
2022-12-19T20:14:10.692Z,70.69
2022-12-19T20:16:39.148Z,70.60
2022-12-19T20:19:09.374Z,70.45
2022-12-19T20:21:37.852Z,70.61
2022-12-19T20:24:07.547Z,70.78
2022-12-19T20:26:36.223Z,70.61
2022-12-19T20:29:07.064Z,70.78
2022-12-19T20:31:35.619Z,70.75
2022-12-19T20:34:04.740Z,70.77
2022-12-19T20:36:34.835Z,70.67
2022-12-19T20:39:03.472Z,70.61
2022-12-19T20:41:32.232Z,70.48
2022-12-19T20:44:01.155Z,70.46
2022-12-19T20:46:29.662Z,70.34
2022-12-19T20:48:59.172Z,70.32
2022-12-19T20:51:27.591Z,70.32
2022-12-19T20:53:58.378Z,70.24
2022-12-19T20:56:28.495Z,70.43
2022-12-19T20:58:57.586Z,70.51
2022-12-19T21:01:26.496Z,70.39
2022-12-19T21:03:55.261Z,70.28
2022-12-19T21:06:26.966Z,70.20
2022-12-19T21:08:58.183Z,69.92
2022-12-19T21:11:27.203Z,70.10
2022-12-19T21:13:56.109Z,70.29
2022-12-19T21:16:24.972Z,70.28
2022-12-19T21:18:53.957Z,70.18
2022-12-19T21:21:24.674Z,70.27
2022-12-19T21:23:55.642Z,70.16
2022-12-19T21:26:26.888Z,70.15
2022-12-19T21:28:58.216Z,70.09
2022-12-19T21:31:28.678Z,70.04
2022-12-19T21:33:59.764Z,70.23
2022-12-19T21:36:29.174Z,70.18
2022-12-19T21:39:00.288Z,70.16
2022-12-19T21:41:30.855Z,70.37
2022-12-19T21:44:00.692Z,70.37
2022-12-19T21:46:32.965Z,70.38
2022-12-19T21:49:03.342Z,70.09
2022-12-19T21:51:33.162Z,70.04
2022-12-19T21:54:03.855Z,69.97
2022-12-19T21:56:35.315Z,69.96
2022-12-19T21:59:05.671Z,69.95
2022-12-19T22:01:35.146Z,69.95
2022-12-19T22:04:06.397Z,70.19
2022-12-19T22:06:37.149Z,70.07
2022-12-19T22:09:08.355Z,70.07
2022-12-19T22:11:38.687Z,70.06
2022-12-19T22:14:07.828Z,69.96
2022-12-19T22:16:37.000Z,69.98
2022-12-19T22:19:07.395Z,69.97
2022-12-19T22:21:36.177Z,69.99
2022-12-19T22:24:05.005Z,70.11
2022-12-19T22:26:35.993Z,70.11
2022-12-19T22:29:08.489Z,70.04
2022-12-19T22:31:38.870Z,70.31
2022-12-19T22:34:10.327Z,70.26
2022-12-19T22:36:40.876Z,70.29
2022-12-19T22:39:10.993Z,70.36
2022-12-19T22:41:41.449Z,70.32
2022-12-19T22:44:16.786Z,70.35
2022-12-19T22:46:45.797Z,70.36
2022-12-19T22:49:14.870Z,70.40
2022-12-19T22:51:43.351Z,70.35
2022-12-19T22:54:12.786Z,70.42
2022-12-19T22:56:42.292Z,70.36
2022-12-19T22:59:13.747Z,70.27
2022-12-19T23:01:44.224Z,70.17
2022-12-19T23:04:15.967Z,70.26
2022-12-19T23:06:45.230Z,70.38
2022-12-19T23:09:16.575Z,70.37
2022-12-19T23:11:47.052Z,70.50
2022-12-19T23:14:19.115Z,70.34
2022-12-19T23:16:48.434Z,70.39
2022-12-19T23:19:17.391Z,70.50
2022-12-19T23:21:46.903Z,70.49
2022-12-19T23:24:16.444Z,70.54
2022-12-19T23:26:45.574Z,70.43
2022-12-19T23:29:15.797Z,70.76
2022-12-19T23:31:47.610Z,70.42
2022-12-19T23:34:16.874Z,70.58
2022-12-19T23:37:10.083Z,70.70
2022-12-19T23:39:35.095Z,70.90
2022-12-19T23:42:03.788Z,70.80
2022-12-19T23:44:32.423Z,70.83
2022-12-19T23:47:04.151Z,70.77
2022-12-19T23:49:33.991Z,70.86
2022-12-19T23:52:03.715Z,70.77
2022-12-19T23:54:32.588Z,70.67
2022-12-19T23:57:01.506Z,70.78
2022-12-19T23:59:30.271Z,70.83
